createdAt,value
2023-01-19T00:02:49.173Z,100.00
2023-01-19T00:05:55.635Z,100.00
2023-01-19T00:09:01.930Z,100.00
2023-01-19T00:12:10.142Z,100.00
2023-01-19T00:15:16.661Z,100.00
2023-01-19T00:18:22.893Z,100.00
2023-01-19T00:21:29.044Z,100.00
2023-01-19T00:24:36.018Z,100.00
2023-01-19T00:27:49.609Z,100.00
2023-01-19T00:30:55.877Z,100.00
2023-01-19T00:34:02.240Z,100.00
2023-01-19T00:37:08.745Z,100.00
2023-01-19T00:40:15.982Z,100.00
2023-01-19T00:43:23.777Z,100.00
2023-01-19T00:46:30.022Z,100.00
2023-01-19T00:49:36.621Z,100.00
2023-01-19T00:52:43.130Z,100.00
2023-01-19T00:55:51.682Z,100.00
2023-01-19T00:58:59.319Z,100.00
2023-01-19T01:02:05.964Z,100.00
2023-01-19T01:05:16.463Z,100.00
2023-01-19T01:08:22.929Z,100.00
2023-01-19T01:11:29.436Z,100.00
2023-01-19T01:14:37.428Z,100.00
2023-01-19T01:17:48.207Z,100.00
2023-01-19T01:20:56.196Z,100.00
2023-01-19T01:24:06.114Z,100.00
2023-01-19T01:27:13.368Z,100.00
2023-01-19T01:33:46.052Z,100.00
2023-01-19T01:36:52.694Z,100.00
2023-01-19T01:39:59.181Z,100.00
2023-01-19T01:43:05.646Z,100.00
2023-01-19T01:46:16.359Z,100.00
2023-01-19T01:49:22.809Z,100.00
2023-01-19T01:52:32.769Z,100.00
2023-01-19T01:55:50.964Z,100.00
2023-01-19T01:58:58.329Z,100.00
2023-01-19T02:02:23.142Z,100.00
2023-01-19T02:05:34.199Z,100.00
2023-01-19T02:09:04.249Z,100.00
2023-01-19T02:12:27.948Z,100.00
2023-01-19T02:15:34.522Z,100.00
2023-01-19T02:18:43.142Z,100.00
2023-01-19T02:21:56.253Z,100.00
2023-01-19T02:25:04.287Z,100.00
2023-01-19T02:28:10.913Z,100.00
2023-01-19T02:31:17.904Z,100.00
2023-01-19T02:34:24.448Z,100.00
2023-01-19T02:37:34.416Z,100.00
2023-01-19T02:40:44.031Z,100.00
2023-01-19T02:43:51.067Z,100.00
2023-01-19T02:46:57.634Z,100.00
2023-01-19T02:50:03.874Z,100.00
2023-01-19T02:53:45.926Z,100.00
2023-01-19T02:57:14.048Z,100.00
2023-01-19T03:00:29.705Z,100.00
2023-01-19T03:03:46.444Z,100.00
2023-01-19T03:07:03.800Z,100.00
2023-01-19T03:10:22.636Z,100.00
2023-01-19T03:13:39.574Z,100.00
2023-01-19T03:16:50.731Z,100.00
2023-01-19T03:19:56.863Z,100.00
2023-01-19T03:23:08.359Z,100.00
2023-01-19T03:26:18.949Z,100.00
2023-01-19T03:29:30.022Z,100.00
2023-01-19T03:32:42.415Z,100.00
2023-01-19T03:35:53.390Z,100.00
2023-01-19T03:39:01.233Z,100.00
2023-01-19T03:42:11.010Z,100.00
2023-01-19T03:45:19.675Z,100.00
2023-01-19T03:48:28.392Z,100.00
2023-01-19T03:51:37.841Z,100.00
2023-01-19T03:54:44.668Z,100.00
2023-01-19T03:57:50.829Z,100.00
2023-01-19T04:00:58.328Z,100.00
2023-01-19T04:04:04.521Z,100.00
2023-01-19T04:07:11.707Z,100.00
2023-01-19T04:10:18.531Z,100.00
2023-01-19T04:13:24.805Z,100.00
2023-01-19T04:16:32.588Z,100.00
2023-01-19T04:19:38.778Z,100.00
2023-01-19T04:22:45.371Z,100.00
2023-01-19T04:25:51.231Z,100.00
2023-01-19T04:28:57.808Z,100.00
2023-01-19T04:32:05.806Z,100.00
2023-01-19T04:35:12.279Z,100.00
2023-01-19T04:38:19.927Z,100.00
2023-01-19T04:41:26.414Z,100.00
2023-01-19T04:44:32.666Z,100.00
2023-01-19T04:47:40.616Z,100.00
2023-01-19T04:50:47.461Z,100.00
2023-01-19T04:53:54.141Z,100.00
2023-01-19T04:57:00.465Z,100.00
2023-01-19T05:00:08.012Z,100.00
2023-01-19T05:03:16.060Z,100.00
2023-01-19T05:06:22.716Z,100.00
2023-01-19T05:09:28.837Z,100.00
2023-01-19T05:12:36.430Z,100.00
2023-01-19T05:15:42.932Z,100.00
2023-01-19T05:18:50.567Z,100.00
2023-01-19T05:21:57.101Z,100.00
2023-01-19T05:25:03.521Z,100.00
2023-01-19T05:28:09.468Z,100.00
2023-01-19T05:31:16.904Z,100.00
2023-01-19T05:34:26.418Z,100.00
2023-01-19T05:37:32.831Z,100.00
2023-01-19T05:40:39.117Z,100.00
2023-01-19T05:43:45.234Z,100.00
2023-01-19T05:46:51.330Z,100.00
2023-01-19T05:49:59.369Z,100.00
2023-01-19T05:53:05.599Z,100.00
2023-01-19T05:56:13.156Z,100.00
2023-01-19T05:59:24.233Z,100.00
2023-01-19T06:02:30.523Z,100.00
2023-01-19T06:05:39.643Z,100.00
2023-01-19T06:08:45.766Z,100.00
2023-01-19T06:11:54.267Z,100.00
2023-01-19T06:15:00.372Z,100.00
2023-01-19T06:18:06.598Z,100.00
2023-01-19T06:21:14.554Z,100.00
2023-01-19T06:24:20.546Z,100.00
2023-01-19T06:27:26.978Z,100.00
2023-01-19T06:30:33.628Z,100.00
2023-01-19T06:33:40.093Z,100.00
2023-01-19T06:36:48.198Z,100.00
2023-01-19T06:39:54.661Z,100.00
2023-01-19T06:43:01.140Z,100.00
2023-01-19T06:46:07.813Z,100.00
2023-01-19T06:49:14.055Z,100.00
2023-01-19T06:52:21.916Z,98.55
2023-01-19T06:55:28.400Z,100.00
2023-01-19T06:58:35.151Z,97.82
2023-01-19T07:01:41.407Z,97.35
2023-01-19T07:04:47.649Z,93.04
2023-01-19T07:07:56.399Z,93.87
2023-01-19T07:11:26.030Z,88.73
2023-01-19T07:14:34.048Z,75.45
2023-01-19T07:17:41.777Z,64.94
2023-01-19T07:20:49.375Z,65.72
2023-01-19T07:23:57.398Z,66.55
2023-01-19T07:27:03.919Z,62.09
2023-01-19T07:30:11.380Z,61.12
2023-01-19T07:33:17.800Z,59.14
2023-01-19T07:36:24.299Z,58.65
2023-01-19T07:39:32.719Z,59.88
2023-01-19T07:42:39.086Z,65.91
2023-01-19T07:45:45.728Z,70.66
2023-01-19T07:48:52.026Z,73.50
2023-01-19T07:51:58.298Z,76.16
2023-01-19T07:55:06.726Z,79.25
2023-01-19T07:58:13.190Z,80.71
2023-01-19T08:01:19.780Z,82.93
2023-01-19T08:04:25.947Z,82.32
2023-01-19T08:07:32.035Z,85.93
2023-01-19T08:10:39.312Z,86.66
2023-01-19T08:13:45.471Z,87.56
2023-01-19T08:16:51.697Z,90.04
2023-01-19T08:19:57.933Z,91.78
2023-01-19T08:23:05.564Z,93.44
2023-01-19T08:26:27.583Z,95.31
2023-01-19T08:29:33.986Z,94.59
2023-01-19T08:32:40.368Z,96.59
2023-01-19T08:35:50.171Z,98.21
2023-01-19T08:38:56.667Z,99.16
2023-01-19T08:42:05.223Z,100.00
2023-01-19T08:45:11.906Z,98.64
2023-01-19T08:48:20.278Z,97.40
2023-01-19T08:51:26.441Z,95.90
2023-01-19T08:54:32.388Z,95.07
2023-01-19T08:57:39.926Z,93.43
2023-01-19T09:00:46.322Z,92.58
2023-01-19T09:03:52.652Z,92.81
2023-01-19T09:06:59.255Z,91.53
2023-01-19T09:10:06.560Z,91.16
2023-01-19T09:13:14.824Z,93.65
2023-01-19T09:16:20.984Z,92.58
2023-01-19T09:19:27.192Z,92.69
2023-01-19T09:22:34.554Z,91.17
2023-01-19T09:25:42.163Z,89.21
2023-01-19T09:28:49.857Z,87.83
2023-01-19T09:31:56.039Z,89.40
2023-01-19T09:35:02.215Z,90.41
2023-01-19T09:38:09.172Z,90.65
2023-01-19T09:41:21.765Z,91.99
2023-01-19T09:44:33.429Z,89.58
2023-01-19T09:47:41.169Z,88.55
2023-01-19T09:50:48.538Z,86.64
2023-01-19T09:54:07.954Z,81.74
2023-01-19T09:57:15.454Z,80.67
2023-01-19T10:00:24.564Z,82.90
2023-01-19T10:03:31.900Z,85.22
2023-01-19T10:06:38.420Z,87.47
2023-01-19T10:09:58.104Z,88.09
2023-01-19T10:13:24.097Z,87.76
2023-01-19T10:16:40.333Z,86.30
2023-01-19T10:19:51.186Z,84.95
2023-01-19T10:23:00.497Z,82.82
2023-01-19T10:26:12.624Z,81.98
2023-01-19T10:29:24.185Z,77.58
2023-01-19T10:32:36.012Z,80.03
2023-01-19T10:35:43.044Z,68.40
2023-01-19T10:38:50.127Z,62.40
2023-01-19T10:41:56.238Z,62.86
2023-01-19T10:45:02.290Z,63.30
2023-01-19T10:48:13.498Z,72.95
2023-01-19T10:51:20.089Z,72.94
2023-01-19T10:54:28.994Z,64.62
2023-01-19T10:57:38.912Z,62.81
2023-01-19T11:00:45.945Z,65.29
2023-01-19T11:04:20.105Z,59.10
2023-01-19T11:07:30.381Z,57.11
2023-01-19T11:10:37.221Z,62.67
2023-01-19T11:13:44.488Z,74.88
2023-01-19T11:16:54.226Z,85.14
2023-01-19T11:20:03.863Z,89.92
2023-01-19T11:23:26.974Z,94.04
2023-01-19T11:26:40.846Z,97.39
2023-01-19T11:29:55.371Z,97.96
2023-01-19T11:33:02.273Z,100.00
2023-01-19T11:36:17.639Z,100.00
2023-01-19T11:39:25.618Z,100.00
2023-01-19T11:42:36.727Z,100.00
2023-01-19T11:45:43.944Z,100.00
2023-01-19T11:48:56.771Z,100.00
2023-01-19T11:52:12.098Z,100.00
2023-01-19T11:55:24.091Z,100.00
2023-01-19T11:58:32.964Z,100.00
2023-01-19T12:01:52.158Z,100.00
2023-01-19T12:05:06.182Z,100.00
2023-01-19T12:08:19.132Z,100.00
2023-01-19T12:11:31.776Z,100.00
2023-01-19T12:14:44.412Z,100.00
2023-01-19T12:17:52.934Z,100.00
2023-01-19T12:21:02.248Z,100.00
2023-01-19T12:24:17.371Z,100.00
2023-01-19T12:27:37.870Z,100.00
2023-01-19T12:30:47.062Z,100.00
2023-01-19T12:33:53.250Z,100.00
2023-01-19T12:37:04.233Z,99.11
2023-01-19T12:40:26.254Z,97.59
2023-01-19T12:43:32.657Z,100.00
2023-01-19T12:46:40.317Z,100.00
2023-01-19T12:49:50.287Z,97.96
2023-01-19T12:52:58.662Z,94.01
2023-01-19T12:56:10.160Z,96.52
2023-01-19T12:59:26.702Z,94.24
2023-01-19T13:02:43.934Z,93.84
2023-01-19T13:05:52.578Z,91.16
2023-01-19T13:09:02.087Z,91.16
2023-01-19T13:12:26.568Z,94.57
2023-01-19T13:15:37.164Z,98.20
2023-01-19T13:18:44.850Z,100.00
2023-01-19T13:21:51.768Z,100.00
2023-01-19T13:25:09.577Z,100.00
2023-01-19T13:28:19.708Z,100.00
2023-01-19T13:31:27.321Z,100.00
2023-01-19T13:34:45.639Z,100.00
2023-01-19T13:37:52.959Z,100.00
2023-01-19T13:41:03.767Z,100.00
2023-01-19T13:44:16.133Z,100.00
2023-01-19T13:47:25.810Z,100.00
2023-01-19T13:50:34.065Z,100.00
2023-01-19T13:53:40.206Z,100.00
2023-01-19T13:56:50.209Z,100.00
2023-01-19T14:00:07.492Z,100.00
2023-01-19T14:03:21.590Z,100.00
2023-01-19T14:06:36.035Z,100.00
2023-01-19T14:09:42.201Z,100.00
2023-01-19T14:12:59.896Z,100.00
2023-01-19T14:16:09.430Z,100.00
2023-01-19T14:19:15.724Z,100.00
2023-01-19T14:22:22.314Z,100.00
2023-01-19T14:25:46.032Z,100.00
2023-01-19T14:28:52.548Z,100.00
2023-01-19T14:32:15.033Z,100.00
2023-01-19T14:35:26.094Z,100.00
2023-01-19T14:38:32.587Z,100.00
2023-01-19T14:41:41.560Z,100.00
2023-01-19T14:44:50.304Z,100.00
2023-01-19T14:48:00.871Z,100.00
2023-01-19T14:51:07.493Z,100.00
2023-01-19T14:54:18.835Z,100.00
2023-01-19T14:57:25.421Z,100.00
2023-01-19T15:00:31.538Z,100.00
2023-01-19T15:03:44.663Z,100.00
2023-01-19T15:06:51.499Z,100.00
2023-01-19T15:09:59.142Z,100.00
2023-01-19T15:13:05.781Z,100.00
2023-01-19T15:16:11.966Z,100.00
2023-01-19T15:19:19.827Z,100.00
2023-01-19T15:22:29.458Z,100.00
2023-01-19T15:25:36.160Z,100.00
2023-01-19T15:28:42.623Z,100.00
2023-01-19T15:31:49.401Z,100.00
2023-01-19T15:34:57.180Z,100.00
2023-01-19T15:38:03.757Z,100.00
2023-01-19T15:41:14.541Z,100.00
2023-01-19T15:44:21.204Z,100.00
2023-01-19T15:47:27.434Z,100.00
2023-01-19T15:50:35.042Z,100.00
2023-01-19T15:53:41.713Z,100.00
2023-01-19T15:56:48.372Z,100.00
2023-01-19T15:59:54.866Z,100.00
2023-01-19T16:03:02.316Z,100.00
2023-01-19T16:06:10.325Z,100.00
2023-01-19T16:09:18.666Z,100.00
2023-01-19T16:12:25.258Z,100.00
2023-01-19T16:15:31.651Z,100.00
2023-01-19T16:18:37.872Z,100.00
2023-01-19T16:21:45.342Z,100.00
2023-01-19T16:24:53.093Z,100.00
2023-01-19T16:27:59.348Z,100.00
2023-01-19T16:31:06.040Z,100.00
2023-01-19T16:34:12.568Z,100.00
2023-01-19T16:37:20.271Z,100.00
2023-01-19T16:40:27.604Z,100.00
2023-01-19T16:43:33.600Z,100.00
2023-01-19T16:46:42.060Z,100.00
2023-01-19T16:49:48.372Z,100.00
2023-01-19T16:52:59.141Z,100.00
2023-01-19T16:56:07.654Z,100.00
2023-01-19T16:59:16.379Z,100.00
2023-01-19T17:02:22.709Z,100.00
2023-01-19T17:05:28.882Z,100.00
2023-01-19T17:08:37.042Z,100.00
2023-01-19T17:11:43.703Z,100.00
2023-01-19T17:14:49.818Z,100.00
2023-01-19T17:17:56.717Z,100.00
2023-01-19T17:21:03.546Z,100.00
2023-01-19T17:24:11.401Z,100.00
2023-01-19T17:27:17.704Z,100.00
2023-01-19T17:30:24.197Z,100.00
2023-01-19T17:33:30.396Z,100.00
2023-01-19T17:36:37.433Z,100.00
2023-01-19T17:39:45.038Z,100.00
2023-01-19T17:42:51.755Z,100.00
2023-01-19T17:45:58.146Z,100.00
2023-01-19T17:49:05.651Z,100.00
2023-01-19T17:52:12.190Z,100.00
2023-01-19T17:55:19.993Z,100.00
2023-01-19T17:58:26.466Z,100.00
2023-01-19T18:01:34.585Z,100.00
2023-01-19T18:04:42.645Z,100.00
2023-01-19T18:07:49.552Z,100.00
2023-01-19T18:10:58.405Z,100.00
2023-01-19T18:14:05.505Z,100.00
2023-01-19T18:17:11.891Z,100.00
2023-01-19T18:20:18.680Z,100.00
2023-01-19T18:23:25.039Z,100.00
2023-01-19T18:26:33.509Z,100.00
2023-01-19T18:29:39.599Z,100.00
2023-01-19T18:32:46.943Z,100.00
2023-01-19T18:35:53.105Z,100.00
2023-01-19T18:38:59.335Z,100.00
2023-01-19T18:42:07.148Z,100.00
2023-01-19T18:45:13.769Z,100.00
2023-01-19T18:48:19.808Z,100.00
2023-01-19T18:51:26.007Z,100.00
2023-01-19T18:54:35.018Z,100.00
2023-01-19T18:57:42.712Z,100.00
2023-01-19T19:00:49.297Z,100.00
2023-01-19T19:03:57.082Z,100.00
2023-01-19T19:07:03.512Z,100.00
2023-01-19T19:10:11.635Z,100.00
2023-01-19T19:13:21.982Z,100.00
2023-01-19T19:16:28.976Z,100.00
2023-01-19T19:19:35.540Z,100.00
2023-01-19T19:22:41.995Z,100.00
2023-01-19T19:25:50.369Z,100.00
2023-01-19T19:28:58.329Z,100.00
2023-01-19T19:32:04.216Z,100.00
2023-01-19T19:35:12.625Z,100.00
2023-01-19T19:38:18.803Z,100.00
2023-01-19T19:41:27.218Z,100.00
2023-01-19T19:44:35.013Z,100.00
2023-01-19T19:47:42.886Z,100.00
2023-01-19T19:50:49.137Z,100.00
2023-01-19T19:53:56.966Z,100.00
2023-01-19T19:57:03.078Z,100.00
2023-01-19T20:00:12.238Z,100.00
2023-01-19T20:03:18.501Z,100.00
2023-01-19T20:06:26.275Z,100.00
2023-01-19T20:09:33.091Z,100.00
2023-01-19T20:12:41.754Z,100.00
2023-01-19T20:15:49.337Z,100.00
2023-01-19T20:18:58.160Z,100.00
2023-01-19T20:22:06.983Z,100.00
2023-01-19T20:25:12.813Z,100.00
2023-01-19T20:28:19.150Z,100.00
2023-01-19T20:31:29.237Z,100.00
2023-01-19T20:34:35.846Z,100.00
2023-01-19T20:37:42.127Z,100.00
2023-01-19T20:40:48.328Z,100.00
2023-01-19T20:43:54.600Z,100.00
2023-01-19T20:47:06.666Z,100.00
2023-01-19T20:50:15.470Z,100.00
2023-01-19T20:53:21.732Z,100.00
2023-01-19T20:56:28.017Z,100.00
2023-01-19T20:59:41.084Z,100.00
2023-01-19T21:02:48.760Z,100.00
2023-01-19T21:05:55.664Z,100.00
2023-01-19T21:09:03.514Z,100.00
2023-01-19T21:12:09.862Z,100.00
2023-01-19T21:15:16.316Z,100.00
2023-01-19T21:18:25.024Z,100.00
2023-01-19T21:21:32.210Z,100.00
2023-01-19T21:24:38.613Z,100.00
2023-01-19T21:27:44.696Z,100.00
2023-01-19T21:30:51.104Z,100.00
2023-01-19T21:33:59.224Z,100.00
2023-01-19T21:37:05.508Z,100.00
2023-01-19T21:40:16.028Z,100.00
2023-01-19T21:43:22.176Z,100.00
2023-01-19T21:46:29.555Z,100.00
2023-01-19T21:49:37.419Z,100.00
2023-01-19T21:52:44.307Z,100.00
2023-01-19T21:55:50.399Z,100.00
2023-01-19T21:58:57.050Z,100.00
2023-01-19T22:02:03.751Z,100.00
2023-01-19T22:05:12.666Z,100.00
2023-01-19T22:08:19.153Z,100.00
2023-01-19T22:11:29.102Z,100.00
2023-01-19T22:14:35.388Z,100.00
2023-01-19T22:17:41.312Z,100.00
2023-01-19T22:20:49.164Z,100.00
2023-01-19T22:23:57.059Z,100.00
2023-01-19T22:27:03.335Z,100.00
2023-01-19T22:30:10.920Z,100.00
2023-01-19T22:33:17.120Z,100.00
2023-01-19T22:36:26.722Z,100.00
2023-01-19T22:39:33.212Z,100.00
2023-01-19T22:42:39.330Z,100.00
2023-01-19T22:45:45.264Z,100.00
2023-01-19T22:48:51.770Z,100.00
2023-01-19T22:51:59.225Z,100.00
2023-01-19T22:55:06.844Z,100.00
2023-01-19T22:58:13.285Z,100.00
2023-01-19T23:01:21.681Z,100.00
2023-01-19T23:04:28.447Z,100.00
2023-01-19T23:07:36.131Z,100.00
2023-01-19T23:10:42.649Z,100.00
2023-01-19T23:13:49.695Z,100.00
2023-01-19T23:16:55.895Z,100.00
2023-01-19T23:20:02.439Z,100.00
2023-01-19T23:23:09.925Z,100.00
2023-01-19T23:26:18.516Z,100.00
2023-01-19T23:29:24.909Z,100.00
2023-01-19T23:32:30.894Z,100.00
